Terminal Aerodrome Forecast
Issued by NWS Duluth, MN

Home | Current Version | Previous Version | Text Only | Print | Product List | Glossary On
Versions: 1 2 3 4 5 6 7 8 9 10 11 12 13 14 15 16 17 18 19 20 21 22 23 24 25 26 27 28 29 30 31 32 33
291
FTUS43 KDLH 222334
TAFINL
TAF
KINL 222334Z 2300/2324 32006KT P6SM VCSH SCT022 OVC035
     FM230500 01006KT 4SM BR VCSH OVC008
     FM231600 03008KT P6SM VCSH OVC010
     FM231900 04010G17KT P6SM VCSH BKN025=

USA.gov is the U.S. government's official web portal to all federal, state and local government web resources and services.